sensor_id;sensor_type;location;lat;lon;timestamp;pressure;altitude;pressure_sealevel;temperature;humidity
72892;BME280;61032;50.782;6.818;2023-06-14T00:00:39;100213.50;;;20.85;40.65
72892;BME280;61032;50.782;6.818;2023-06-14T00:01:41;100212.41;;;20.65;41.14
72892;BME280;61032;50.782;6.818;2023-06-14T00:02:41;100215.19;;;20.61;41.25
72892;BME280;61032;50.782;6.818;2023-06-14T00:03:41;100216.03;;;20.54;41.94
72892;BME280;61032;50.782;6.818;2023-06-14T00:04:42;100220.84;;;20.50;42.07
72892;BME280;61032;50.782;6.818;2023-06-14T00:05:43;100222.84;;;20.43;42.47
72892;BME280;61032;50.782;6.818;2023-06-14T00:06:44;100224.84;;;20.39;42.32
72892;BME280;61032;50.782;6.818;2023-06-14T00:07:48;100222.53;;;20.16;43.11
72892;BME280;61032;50.782;6.818;2023-06-14T00:08:49;100224.50;;;20.01;43.75
72892;BME280;61032;50.782;6.818;2023-06-14T00:09:49;100219.72;;;19.98;43.47
72892;BME280;61032;50.782;6.818;2023-06-14T00:10:50;100226.13;;;20.02;43.88
72892;BME280;61032;50.782;6.818;2023-06-14T00:11:50;100224.13;;;20.10;43.45
72892;BME280;61032;50.782;6.818;2023-06-14T00:12:50;100217.34;;;20.04;43.46
72892;BME280;61032;50.782;6.818;2023-06-14T00:13:51;100219.75;;;19.80;44.04
72892;BME280;61032;50.782;6.818;2023-06-14T00:14:51;100223.34;;;19.84;43.98
72892;BME280;61032;50.782;6.818;2023-06-14T00:15:51;100227.31;;;19.76;44.36
72892;BME280;61032;50.782;6.818;2023-06-14T00:16:55;100224.94;;;19.89;44.24
72892;BME280;61032;50.782;6.818;2023-06-14T00:17:58;100224.13;;;19.96;44.00
72892;BME280;61032;50.782;6.818;2023-06-14T00:19:02;100226.13;;;19.95;44.11
72892;BME280;61032;50.782;6.818;2023-06-14T00:20:05;100222.56;;;19.87;44.25
72892;BME280;61032;50.782;6.818;2023-06-14T00:21:06;100224.94;;;19.85;44.21
72892;BME280;61032;50.782;6.818;2023-06-14T00:22:07;100231.31;;;19.82;44.08
72892;BME280;61032;50.782;6.818;2023-06-14T00:23:07;100229.72;;;19.78;44.47
72892;BME280;61032;50.782;6.818;2023-06-14T00:24:07;100228.13;;;19.84;44.10
72892;BME280;61032;50.782;6.818;2023-06-14T00:25:08;100233.31;;;19.82;44.50
72892;BME280;61032;50.782;6.818;2023-06-14T00:26:08;100228.94;;;19.81;44.37
72892;BME280;61032;50.782;6.818;2023-06-14T00:27:08;100226.13;;;19.81;44.07
72892;BME280;61032;50.782;6.818;2023-06-14T00:28:09;100237.28;;;19.81;44.08
72892;BME280;61032;50.782;6.818;2023-06-14T00:29:09;100238.09;;;19.85;44.25
72892;BME280;61032;50.782;6.818;2023-06-14T00:30:10;100233.72;;;19.87;44.43
72892;BME280;61032;50.782;6.818;2023-06-14T00:31:10;100232.13;;;19.79;44.74
72892;BME280;61032;50.782;6.818;2023-06-14T00:32:11;100228.16;;;19.70;45.24
72892;BME280;61032;50.782;6.818;2023-06-14T00:33:11;100233.72;;;19.63;45.83
72892;BME280;61032;50.782;6.818;2023-06-14T00:34:11;100232.53;;;19.64;45.82
72892;BME280;61032;50.782;6.818;2023-06-14T00:35:12;100234.91;;;19.69;45.26
72892;BME280;61032;50.782;6.818;2023-06-14T00:36:12;100235.72;;;19.69;45.71
72892;BME280;61032;50.782;6.818;2023-06-14T00:37:13;100229.75;;;19.71;45.65
72892;BME280;61032;50.782;6.818;2023-06-14T00:38:13;100235.72;;;19.69;45.46
72892;BME280;61032;50.782;6.818;2023-06-14T00:39:13;100235.72;;;19.73;45.39
72892;BME280;61032;50.782;6.818;2023-06-14T00:40:14;100236.91;;;19.68;45.38
72892;BME280;61032;50.782;6.818;2023-06-14T00:41:14;100240.91;;;19.67;45.69
72892;BME280;61032;50.782;6.818;2023-06-14T00:42:25;100239.28;;;19.59;45.90
72892;BME280;61032;50.782;6.818;2023-06-14T00:43:25;100233.72;;;19.52;46.18
72892;BME280;61032;50.782;6.818;2023-06-14T00:44:26;100232.13;;;19.51;45.75
72892;BME280;61032;50.782;6.818;2023-06-14T00:45:26;100236.50;;;19.52;45.43
72892;BME280;61032;50.782;6.818;2023-06-14T00:46:26;100231.28;;;19.47;45.80
72892;BME280;61032;50.782;6.818;2023-06-14T00:47:26;100234.50;;;19.56;45.91
72892;BME280;61032;50.782;6.818;2023-06-14T00:48:28;100228.94;;;19.63;45.57
72892;BME280;61032;50.782;6.818;2023-06-14T00:49:29;100232.53;;;19.64;45.84
72892;BME280;61032;50.782;6.818;2023-06-14T00:50:29;100237.69;;;19.62;45.42
72892;BME280;61032;50.782;6.818;2023-06-14T00:51:32;100236.09;;;19.64;45.33
72892;BME280;61032;50.782;6.818;2023-06-14T00:52:32;100240.09;;;19.63;45.35
72892;BME280;61032;50.782;6.818;2023-06-14T00:53:33;100245.25;;;19.58;45.92
72892;BME280;61032;50.782;6.818;2023-06-14T00:54:35;100245.63;;;19.49;45.80
72892;BME280;61032;50.782;6.818;2023-06-14T00:55:36;100250.38;;;19.27;46.55
72892;BME280;61032;50.782;6.818;2023-06-14T00:56:37;100249.59;;;19.30;46.43
72892;BME280;61032;50.782;6.818;2023-06-14T00:57:37;100247.19;;;19.36;46.36
72892;BME280;61032;50.782;6.818;2023-06-14T00:58:38;100247.59;;;19.23;46.74
72892;BME280;61032;50.782;6.818;2023-06-14T00:59:43;100249.16;;;19.17;47.09
72892;BME280;61032;50.782;6.818;2023-06-14T01:00:43;100246.34;;;19.14;46.91
72892;BME280;61032;50.782;6.818;2023-06-14T01:01:44;100248.34;;;19.17;46.76
72892;BME280;61032;50.782;6.818;2023-06-14T01:02:45;100248.75;;;19.12;47.08
72892;BME280;61032;50.782;6.818;2023-06-14T01:03:45;100248.75;;;19.08;47.25
72892;BME280;61032;50.782;6.818;2023-06-14T01:04:47;100250.31;;;19.02;47.79
72892;BME280;61032;50.782;6.818;2023-06-14T01:05:56;100245.13;;;18.97;47.95
72892;BME280;61032;50.782;6.818;2023-06-14T01:07:11;100243.94;;;18.98;48.16
72892;BME280;61032;50.782;6.818;2023-06-14T01:08:41;100254.28;;;18.98;48.02
72892;BME280;61032;50.782;6.818;2023-06-14T01:10:01;100253.50;;;19.04;47.50
72892;BME280;61032;50.782;6.818;2023-06-14T01:11:11;100250.28;;;18.95;47.49
72892;BME280;61032;50.782;6.818;2023-06-14T01:12:24;100251.88;;;18.96;47.89
72892;BME280;61032;50.782;6.818;2023-06-14T01:13:37;100246.72;;;18.91;48.03
72892;BME280;61032;50.782;6.818;2023-06-14T01:14:38;100243.50;;;18.93;48.02
72892;BME280;61032;50.782;6.818;2023-06-14T01:15:39;100255.06;;;18.87;48.33
72892;BME280;61032;50.782;6.818;2023-06-14T01:16:40;100246.31;;;18.89;48.50
72892;BME280;61032;50.782;6.818;2023-06-14T01:17:42;100256.59;;;18.78;48.65
72892;BME280;61032;50.782;6.818;2023-06-14T01:18:46;100258.97;;;18.76;49.07
72892;BME280;61032;50.782;6.818;2023-06-14T01:19:51;100264.56;;;18.79;48.91
72892;BME280;61032;50.782;6.818;2023-06-14T01:20:57;100254.19;;;18.73;49.18
72892;BME280;61032;50.782;6.818;2023-06-14T01:22:00;100254.97;;;18.66;49.84
72892;BME280;61032;50.782;6.818;2023-06-14T01:23:01;100254.94;;;18.63;49.80
72892;BME280;61032;50.782;6.818;2023-06-14T01:24:02;100255.25;;;18.54;50.17
72892;BME280;61032;50.782;6.818;2023-06-14T01:25:03;100253.69;;;18.57;50.09
72892;BME280;61032;50.782;6.818;2023-06-14T01:26:04;100252.44;;;18.50;50.15
72892;BME280;61032;50.782;6.818;2023-06-14T01:27:05;100250.84;;;18.42;50.51
72892;BME280;61032;50.782;6.818;2023-06-14T01:28:07;100251.16;;;18.34;50.86
72892;BME280;61032;50.782;6.818;2023-06-14T01:29:13;100254.34;;;18.32;50.86
72892;BME280;61032;50.782;6.818;2023-06-14T01:30:17;100250.72;;;18.25;51.12
72892;BME280;61032;50.782;6.818;2023-06-14T01:31:21;100257.09;;;18.25;51.10
72892;BME280;61032;50.782;6.818;2023-06-14T01:32:26;100257.06;;;18.22;50.82
72892;BME280;61032;50.782;6.818;2023-06-14T01:33:28;100259.00;;;18.14;51.12
72892;BME280;61032;50.782;6.818;2023-06-14T01:34:29;100257.00;;;18.14;50.94
72892;BME280;61032;50.782;6.818;2023-06-14T01:35:30;100258.63;;;18.15;51.25
72892;BME280;61032;50.782;6.818;2023-06-14T01:36:30;100253.06;;;18.19;51.00
72892;BME280;61032;50.782;6.818;2023-06-14T01:37:31;100259.88;;;18.25;50.97
72892;BME280;61032;50.782;6.818;2023-06-14T01:38:32;100258.31;;;18.28;50.77
72892;BME280;61032;50.782;6.818;2023-06-14T01:39:33;100253.13;;;18.26;51.02
72892;BME280;61032;50.782;6.818;2023-06-14T01:40:34;100262.66;;;18.25;51.10
72892;BME280;61032;50.782;6.818;2023-06-14T01:41:35;100257.91;;;18.26;50.82
72892;BME280;61032;50.782;6.818;2023-06-14T01:42:37;100265.38;;;18.18;51.25
72892;BME280;61032;50.782;6.818;2023-06-14T01:43:39;100265.38;;;18.18;51.32
72892;BME280;61032;50.782;6.818;2023-06-14T01:44:42;100262.59;;;18.18;51.39
72892;BME280;61032;50.782;6.818;2023-06-14T01:45:45;100259.78;;;18.07;51.79
72892;BME280;61032;50.782;6.818;2023-06-14T01:46:47;100263.41;;;18.18;51.34
72892;BME280;61032;50.782;6.818;2023-06-14T01:47:48;100267.44;;;18.25;51.28
72892;BME280;61032;50.782;6.818;2023-06-14T01:48:49;100258.66;;;18.23;51.23
72892;BME280;61032;50.782;6.818;2023-06-14T01:49:49;100256.28;;;18.21;51.40
72892;BME280;61032;50.782;6.818;2023-06-14T01:50:52;100263.34;;;18.11;51.84
72892;BME280;61032;50.782;6.818;2023-06-14T01:51:52;100267.31;;;18.07;52.20
72892;BME280;61032;50.782;6.818;2023-06-14T01:52:52;100268.09;;;18.04;52.39
72892;BME280;61032;50.782;6.818;2023-06-14T01:53:53;100271.25;;;18.02;52.31
72892;BME280;61032;50.782;6.818;2023-06-14T01:54:53;100266.84;;;17.98;52.64
72892;BME280;61032;50.782;6.818;2023-06-14T01:55:53;100264.81;;;17.95;52.91
72892;BME280;61032;50.782;6.818;2023-06-14T01:56:54;100270.28;;;17.80;53.10
72892;BME280;61032;50.782;6.818;2023-06-14T01:57:54;100277.00;;;17.76;53.04
72892;BME280;61032;50.782;6.818;2023-06-14T01:58:54;100270.56;;;17.68;53.36
72892;BME280;61032;50.782;6.818;2023-06-14T01:59:56;100271.78;;;17.71;53.31
72892;BME280;61032;50.782;6.818;2023-06-14T02:00:57;100270.16;;;17.66;53.54
72892;BME280;61032;50.782;6.818;2023-06-14T02:01:58;100269.38;;;17.69;53.44
72892;BME280;61032;50.782;6.818;2023-06-14T02:02:58;100269.00;;;17.71;53.47
72892;BME280;61032;50.782;6.818;2023-06-14T02:03:58;100269.84;;;17.75;53.35
72892;BME280;61032;50.782;6.818;2023-06-14T02:04:59;100262.63;;;17.70;53.41
72892;BME280;61032;50.782;6.818;2023-06-14T02:05:59;100269.38;;;17.69;53.28
72892;BME280;61032;50.782;6.818;2023-06-14T02:07:00;100262.31;;;17.79;52.94
72892;BME280;61032;50.782;6.818;2023-06-14T02:08:00;100264.69;;;17.77;53.02
72892;BME280;61032;50.782;6.818;2023-06-14T02:09:01;100263.88;;;17.76;52.84
72892;BME280;61032;50.782;6.818;2023-06-14T02:10:03;100273.00;;;17.73;52.93
72892;BME280;61032;50.782;6.818;2023-06-14T02:11:04;100259.94;;;17.77;52.85
72892;BME280;61032;50.782;6.818;2023-06-14T02:12:04;100269.56;;;17.87;52.66
72892;BME280;61032;50.782;6.818;2023-06-14T02:13:05;100262.41;;;17.90;52.33
72892;BME280;61032;50.782;6.818;2023-06-14T02:14:06;100268.78;;;17.94;52.34
72892;BME280;61032;50.782;6.818;2023-06-14T02:15:07;100263.19;;;17.90;52.33
72892;BME280;61032;50.782;6.818;2023-06-14T02:16:08;100264.00;;;17.87;52.51
72892;BME280;61032;50.782;6.818;2023-06-14T02:17:08;100267.16;;;17.85;52.59
72892;BME280;61032;50.782;6.818;2023-06-14T02:18:09;100263.59;;;17.92;52.26
72892;BME280;61032;50.782;6.818;2023-06-14T02:19:10;100263.22;;;17.94;52.49
72892;BME280;61032;50.782;6.818;2023-06-14T02:20:11;100263.22;;;17.94;52.32
72892;BME280;61032;50.782;6.818;2023-06-14T02:21:11;100263.97;;;17.83;52.69
72892;BME280;61032;50.782;6.818;2023-06-14T02:22:13;100264.28;;;17.75;52.89
72892;BME280;61032;50.782;6.818;2023-06-14T02:23:14;100270.22;;;17.73;53.00
72892;BME280;61032;50.782;6.818;2023-06-14T02:24:15;100271.78;;;17.71;52.99
72892;BME280;61032;50.782;6.818;2023-06-14T02:25:15;100259.88;;;17.74;52.92
72892;BME280;61032;50.782;6.818;2023-06-14T02:26:16;100263.91;;;17.80;52.76
72892;BME280;61032;50.782;6.818;2023-06-14T02:27:16;100263.19;;;17.87;52.71
72892;BME280;61032;50.782;6.818;2023-06-14T02:28:16;100266.34;;;17.89;52.60
72892;BME280;61032;50.782;6.818;2023-06-14T02:29:17;100264.38;;;17.85;52.88
72892;BME280;61032;50.782;6.818;2023-06-14T02:30:17;100257.22;;;17.84;52.85
72892;BME280;61032;50.782;6.818;2023-06-14T02:31:17;100267.78;;;17.68;53.93
72892;BME280;61032;50.782;6.818;2023-06-14T02:32:18;100264.59;;;17.66;53.79
72892;BME280;61032;50.782;6.818;2023-06-14T02:33:18;100272.53;;;17.64;53.98
72892;BME280;61032;50.782;6.818;2023-06-14T02:34:19;100269.19;;;17.51;54.41
72892;BME280;61032;50.782;6.818;2023-06-14T02:35:20;100268.38;;;17.51;54.42
72892;BME280;61032;50.782;6.818;2023-06-14T02:36:22;100275.88;;;17.47;54.37
72892;BME280;61032;50.782;6.818;2023-06-14T02:37:22;100277.78;;;17.36;54.69
72892;BME280;61032;50.782;6.818;2023-06-14T02:38:22;100279.34;;;17.33;54.98
72892;BME280;61032;50.782;6.818;2023-06-14T02:39:23;100276.47;;;17.26;55.19
72892;BME280;61032;50.782;6.818;2023-06-14T02:40:23;100272.63;;;17.38;54.82
72892;BME280;61032;50.782;6.818;2023-06-14T02:41:24;100271.81;;;17.34;54.17
72892;BME280;61032;50.782;6.818;2023-06-14T02:42:26;100278.50;;;17.29;54.49
72892;BME280;61032;50.782;6.818;2023-06-14T02:43:28;100280.84;;;17.27;54.64
72892;BME280;61032;50.782;6.818;2023-06-14T02:44:29;100275.34;;;17.31;54.54
72892;BME280;61032;50.782;6.818;2023-06-14T02:45:29;100273.34;;;17.31;54.38
72892;BME280;61032;50.782;6.818;2023-06-14T02:46:30;100274.91;;;17.29;54.28
72892;BME280;61032;50.782;6.818;2023-06-14T02:47:30;100280.47;;;17.29;54.34
72892;BME280;61032;50.782;6.818;2023-06-14T02:48:30;100283.25;;;17.29;54.26
72892;BME280;61032;50.782;6.818;2023-06-14T02:49:31;100277.66;;;17.25;54.44
72892;BME280;61032;50.782;6.818;2023-06-14T02:50:31;100283.06;;;17.11;54.70
72892;BME280;61032;50.782;6.818;2023-06-14T02:51:32;100275.53;;;17.11;54.73
72892;BME280;61032;50.782;6.818;2023-06-14T02:52:33;100280.25;;;17.07;54.84
72892;BME280;61032;50.782;6.818;2023-06-14T02:53:34;100273.13;;;17.10;54.80
72892;BME280;61032;50.782;6.818;2023-06-14T02:54:34;100279.16;;;17.15;54.43
72892;BME280;61032;50.782;6.818;2023-06-14T02:55:35;100277.25;;;17.23;54.22
72892;BME280;61032;50.782;6.818;2023-06-14T02:56:39;100283.91;;;17.15;54.32
72892;BME280;61032;50.782;6.818;2023-06-14T02:57:40;100283.78;;;17.04;54.77
72892;BME280;61032;50.782;6.818;2023-06-14T02:58:41;100284.50;;;16.98;55.04
72892;BME280;61032;50.782;6.818;2023-06-14T02:59:41;100284.56;;;17.01;55.14
72892;BME280;61032;50.782;6.818;2023-06-14T03:00:42;100281.72;;;16.98;55.06
72892;BME280;61032;50.782;6.818;2023-06-14T03:01:42;100281.72;;;16.98;55.15
72892;BME280;61032;50.782;6.818;2023-06-14T03:02:43;100279.72;;;16.95;55.16
72892;BME280;61032;50.782;6.818;2023-06-14T03:03:43;100287.50;;;16.86;55.07
72892;BME280;61032;50.782;6.818;2023-06-14T03:04:43;100296.53;;;16.75;55.45
72892;BME280;61032;50.782;6.818;2023-06-14T03:05:46;100294.13;;;16.74;55.63
72892;BME280;61032;50.782;6.818;2023-06-14T03:06:47;100292.16;;;16.74;55.41
72892;BME280;61032;50.782;6.818;2023-06-14T03:07:50;100296.94;;;16.77;55.30
72892;BME280;61032;50.782;6.818;2023-06-14T03:08:50;100304.91;;;16.79;55.27
72892;BME280;61032;50.782;6.818;2023-06-14T03:09:51;100304.00;;;16.71;55.55
72892;BME280;61032;50.782;6.818;2023-06-14T03:10:52;100299.16;;;16.65;55.68
72892;BME280;61032;50.782;6.818;2023-06-14T03:11:53;100303.72;;;16.54;55.79
72892;BME280;61032;50.782;6.818;2023-06-14T03:12:53;100311.69;;;16.55;56.08
72892;BME280;61032;50.782;6.818;2023-06-14T03:13:54;100305.28;;;16.51;56.15
72892;BME280;61032;50.782;6.818;2023-06-14T03:14:55;100307.69;;;16.53;55.75
72892;BME280;61032;50.782;6.818;2023-06-14T03:15:57;100311.19;;;16.49;56.12
72892;BME280;61032;50.782;6.818;2023-06-14T03:16:57;100309.91;;;16.43;56.01
72892;BME280;61032;50.782;6.818;2023-06-14T03:17:57;100308.31;;;16.42;56.24
72892;BME280;61032;50.782;6.818;2023-06-14T03:18:59;100310.34;;;16.45;55.98
72892;BME280;61032;50.782;6.818;2023-06-14T03:20:00;100309.22;;;16.50;55.92
72892;BME280;61032;50.782;6.818;2023-06-14T03:21:01;100306.13;;;16.55;55.86
72892;BME280;61032;50.782;6.818;2023-06-14T03:22:01;100306.56;;;16.57;55.66
72892;BME280;61032;50.782;6.818;2023-06-14T03:23:02;100310.13;;;16.58;55.38
72892;BME280;61032;50.782;6.818;2023-06-14T03:24:03;100312.44;;;16.52;55.36
72892;BME280;61032;50.782;6.818;2023-06-14T03:25:04;100305.72;;;16.53;55.55
72892;BME280;61032;50.782;6.818;2023-06-14T03:26:04;100310.88;;;16.55;55.43
72892;BME280;61032;50.782;6.818;2023-06-14T03:27:05;100307.69;;;16.53;55.72
72892;BME280;61032;50.782;6.818;2023-06-14T03:28:05;100312.44;;;16.52;55.88
72892;BME280;61032;50.782;6.818;2023-06-14T03:29:06;100310.03;;;16.50;55.74
72892;BME280;61032;50.782;6.818;2023-06-14T03:30:06;100307.56;;;16.45;55.93
72892;BME280;61032;50.782;6.818;2023-06-14T03:31:08;100311.69;;;16.55;55.97
72892;BME280;61032;50.782;6.818;2023-06-14T03:32:09;100310.88;;;16.55;55.83
72892;BME280;61032;50.782;6.818;2023-06-14T03:33:09;100311.56;;;16.48;56.12
72892;BME280;61032;50.782;6.818;2023-06-14T03:34:09;100314.88;;;16.57;55.80
72892;BME280;61032;50.782;6.818;2023-06-14T03:35:10;100310.13;;;16.58;55.47
72892;BME280;61032;50.782;6.818;2023-06-14T03:36:16;100315.25;;;16.56;55.67
72892;BME280;61032;50.782;6.818;2023-06-14T03:37:17;100315.53;;;16.47;55.98
72892;BME280;61032;50.782;6.818;2023-06-14T03:38:18;100319.16;;;16.51;55.81
72892;BME280;61032;50.782;6.818;2023-06-14T03:39:19;100311.31;;;16.57;55.71
72892;BME280;61032;50.782;6.818;2023-06-14T03:40:20;100317.28;;;16.59;55.58
72892;BME280;61032;50.782;6.818;2023-06-14T03:41:21;100317.28;;;16.59;55.69
72892;BME280;61032;50.782;6.818;2023-06-14T03:42:21;100314.94;;;16.61;55.41
72892;BME280;61032;50.782;6.818;2023-06-14T03:43:22;100320.91;;;16.63;55.51
72892;BME280;61032;50.782;6.818;2023-06-14T03:44:22;100318.56;;;16.65;55.53
72892;BME280;61032;50.782;6.818;2023-06-14T03:45:22;100323.44;;;16.71;55.32
72892;BME280;61032;50.782;6.818;2023-06-14T03:46:23;100322.75;;;16.78;55.10
72892;BME280;61032;50.782;6.818;2023-06-14T03:47:23;100320.81;;;16.82;54.83
72892;BME280;61032;50.782;6.818;2023-06-14T03:48:23;100319.06;;;16.70;55.05
72892;BME280;61032;50.782;6.818;2023-06-14T03:49:24;100320.59;;;16.68;55.15
72892;BME280;61032;50.782;6.818;2023-06-14T03:50:24;100325.84;;;16.73;55.07
72892;BME280;61032;50.782;6.818;2023-06-14T03:51:25;100321.78;;;16.67;54.73
72892;BME280;61032;50.782;6.818;2023-06-14T03:52:26;100332.94;;;16.70;54.81
72892;BME280;61032;50.782;6.818;2023-06-14T03:53:26;100323.66;;;16.63;54.79
72892;BME280;61032;50.782;6.818;2023-06-14T03:54:28;100322.16;;;16.65;54.83
72892;BME280;61032;50.782;6.818;2023-06-14T03:55:28;100325.41;;;16.71;54.61
72892;BME280;61032;50.782;6.818;2023-06-14T03:56:31;100328.19;;;16.71;54.81
72892;BME280;61032;50.782;6.818;2023-06-14T03:57:31;100327.88;;;16.76;54.52
72892;BME280;61032;50.782;6.818;2023-06-14T03:58:31;100332.00;;;16.63;54.41
72892;BME280;61032;50.782;6.818;2023-06-14T03:59:32;100327.66;;;16.62;54.75
72892;BME280;61032;50.782;6.818;2023-06-14T04:00:32;100326.38;;;16.56;54.83
72892;BME280;61032;50.782;6.818;2023-06-14T04:01:32;100326.78;;;16.58;55.17
72892;BME280;61032;50.782;6.818;2023-06-14T04:02:33;100332.34;;;16.58;55.32
72892;BME280;61032;50.782;6.818;2023-06-14T04:03:34;100332.34;;;16.58;55.02
72892;BME280;61032;50.782;6.818;2023-06-14T04:04:34;100328.81;;;16.61;55.26
72892;BME280;61032;50.782;6.818;2023-06-14T04:05:35;100330.91;;;16.67;55.08
72892;BME280;61032;50.782;6.818;2023-06-14T04:06:36;100336.41;;;16.64;55.03
72892;BME280;61032;50.782;6.818;2023-06-14T04:07:37;100334.75;;;16.59;54.79
72892;BME280;61032;50.782;6.818;2023-06-14T04:08:45;100334.25;;;16.54;54.97
72892;BME280;61032;50.782;6.818;2023-06-14T04:09:45;100339.56;;;16.62;54.79
72892;BME280;61032;50.782;6.818;2023-06-14T04:10:46;100343.09;;;16.63;54.74
72892;BME280;61032;50.782;6.818;2023-06-14T04:11:46;100340.25;;;16.56;54.82
72892;BME280;61032;50.782;6.818;2023-06-14T04:12:47;100342.22;;;16.55;55.24
72892;BME280;61032;50.782;6.818;2023-06-14T04:13:47;100340.78;;;16.65;55.23
72892;BME280;61032;50.782;6.818;2023-06-14T04:14:47;100342.75;;;16.64;54.75
72892;BME280;61032;50.782;6.818;2023-06-14T04:15:48;100341.41;;;16.55;55.12
72892;BME280;61032;50.782;6.818;2023-06-14T04:16:49;100348.81;;;16.47;55.34
72892;BME280;61032;50.782;6.818;2023-06-14T04:17:49;100349.25;;;16.49;55.21
72892;BME280;61032;50.782;6.818;2023-06-14T04:18:50;100351.53;;;16.43;54.84
72892;BME280;61032;50.782;6.818;2023-06-14T04:19:52;100349.41;;;16.33;55.16
72892;BME280;61032;50.782;6.818;2023-06-14T04:20:52;100356.50;;;16.31;55.58
72892;BME280;61032;50.782;6.818;2023-06-14T04:21:53;100350.66;;;16.36;55.64
72892;BME280;61032;50.782;6.818;2023-06-14T04:22:56;100354.97;;;16.33;55.78
72892;BME280;61032;50.782;6.818;2023-06-14T04:23:57;100351.03;;;16.34;56.04
72892;BME280;61032;50.782;6.818;2023-06-14T04:24:57;100352.94;;;16.30;56.56
72892;BME280;61032;50.782;6.818;2023-06-14T04:25:57;100352.63;;;16.35;56.20
72892;BME280;61032;50.782;6.818;2023-06-14T04:27:02;100354.28;;;16.40;55.97
72892;BME280;61032;50.782;6.818;2023-06-14T04:28:03;100359.41;;;16.38;55.79
72892;BME280;61032;50.782;6.818;2023-06-14T04:29:03;100344.03;;;16.44;55.52
72892;BME280;61032;50.782;6.818;2023-06-14T04:30:04;100352.91;;;16.53;55.18
72892;BME280;61032;50.782;6.818;2023-06-14T04:31:05;100348.94;;;16.54;54.96
72892;BME280;61032;50.782;6.818;2023-06-14T04:32:05;100359.13;;;16.46;55.16
72892;BME280;61032;50.782;6.818;2023-06-14T04:33:07;100353.22;;;16.48;55.24
72892;BME280;61032;50.782;6.818;2023-06-14T04:34:10;100359.94;;;16.47;55.48
72892;BME280;61032;50.782;6.818;2023-06-14T04:35:15;100361.03;;;16.42;54.81
72892;BME280;61032;50.782;6.818;2023-06-14T04:36:17;100354.00;;;16.48;55.00
72892;BME280;61032;50.782;6.818;2023-06-14T04:37:17;100360.09;;;16.58;55.11
72892;BME280;61032;50.782;6.818;2023-06-14T04:38:19;100360.34;;;16.72;54.43
72892;BME280;61032;50.782;6.818;2023-06-14T04:39:25;100365.56;;;16.77;54.30
72892;BME280;61032;50.782;6.818;2023-06-14T04:40:26;100360.00;;;16.77;54.13
72892;BME280;61032;50.782;6.818;2023-06-14T04:41:26;100368.41;;;16.80;53.81
72892;BME280;61032;50.782;6.818;2023-06-14T04:42:30;100361.66;;;16.81;54.10
72892;BME280;61032;50.782;6.818;2023-06-14T04:43:31;100360.09;;;16.84;54.14
72892;BME280;61032;50.782;6.818;2023-06-14T04:44:38;100363.28;;;16.82;54.06
72892;BME280;61032;50.782;6.818;2023-06-14T04:45:39;100369.94;;;16.78;54.41
72892;BME280;61032;50.782;6.818;2023-06-14T04:46:41;100363.53;;;16.74;54.54
72892;BME280;61032;50.782;6.818;2023-06-14T04:47:46;100364.34;;;16.74;54.37
72892;BME280;61032;50.782;6.818;2023-06-14T04:48:46;100371.06;;;16.73;54.16
72892;BME280;61032;50.782;6.818;2023-06-14T04:49:47;100365.19;;;16.78;54.32
72892;BME280;61032;50.782;6.818;2023-06-14T04:50:49;100368.84;;;16.86;54.12
72892;BME280;61032;50.782;6.818;2023-06-14T04:51:53;100364.06;;;16.83;54.26
72892;BME280;61032;50.782;6.818;2023-06-14T04:53:02;100365.72;;;16.61;55.23
72892;BME280;61032;50.782;6.818;2023-06-14T04:54:03;100367.25;;;16.59;55.39
72892;BME280;61032;50.782;6.818;2023-06-14T04:55:05;100372.13;;;16.65;55.39
72892;BME280;61032;50.782;6.818;2023-06-14T04:56:05;100376.25;;;16.75;55.22
72892;BME280;61032;50.782;6.818;2023-06-14T04:57:06;100370.81;;;16.86;55.04
72892;BME280;61032;50.782;6.818;2023-06-14T04:58:06;100365.81;;;16.95;54.65
72892;BME280;61032;50.782;6.818;2023-06-14T04:59:06;100367.91;;;17.05;54.50
72892;BME280;61032;50.782;6.818;2023-06-14T05:00:07;100369.19;;;17.11;54.59
72892;BME280;61032;50.782;6.818;2023-06-14T05:01:09;100376.41;;;17.15;54.43
72892;BME280;61032;50.782;6.818;2023-06-14T05:02:10;100378.09;;;17.24;54.47
72892;BME280;61032;50.782;6.818;2023-06-14T05:03:11;100378.53;;;17.29;54.15
72892;BME280;61032;50.782;6.818;2023-06-14T05:04:16;100363.13;;;17.35;53.90
72892;BME280;61032;50.782;6.818;2023-06-14T05:05:16;100369.13;;;17.37;54.31
72892;BME280;61032;50.782;6.818;2023-06-14T05:06:17;100368.41;;;17.44;54.07
72892;BME280;61032;50.782;6.818;2023-06-14T05:07:17;100373.53;;;17.42;53.90
72892;BME280;61032;50.782;6.818;2023-06-14T05:08:18;100371.63;;;17.49;53.99
72892;BME280;61032;50.782;6.818;2023-06-14T05:09:18;100373.66;;;17.52;54.06
72892;BME280;61032;50.782;6.818;2023-06-14T05:10:19;100372.50;;;17.57;53.49
72892;BME280;61032;50.782;6.818;2023-06-14T05:11:20;100377.81;;;17.66;53.74
72892;BME280;61032;50.782;6.818;2023-06-14T05:12:20;100375.94;;;17.77;53.69
72892;BME280;61032;50.782;6.818;2023-06-14T05:13:21;100381.19;;;17.85;53.39
72892;BME280;61032;50.782;6.818;2023-06-14T05:14:23;100377.66;;;17.92;53.14
72892;BME280;61032;50.782;6.818;2023-06-14T05:15:23;100380.47;;;17.96;53.09
72892;BME280;61032;50.782;6.818;2023-06-14T05:16:25;100383.25;;;17.96;53.03
72892;BME280;61032;50.782;6.818;2023-06-14T05:17:27;100378.53;;;18.00;52.95
72892;BME280;61032;50.782;6.818;2023-06-14T05:18:28;100384.94;;;18.04;53.16
72892;BME280;61032;50.782;6.818;2023-06-14T05:19:28;100380.97;;;18.05;53.22
72892;BME280;61032;50.782;6.818;2023-06-14T05:20:28;100374.69;;;18.15;52.65
72892;BME280;61032;50.782;6.818;2023-06-14T05:21:29;100386.66;;;18.19;51.86